Time;durP1;ratioP1;P1;durP2;ratioP2;P2;SDS_P1;SDS_P2;PMS_P1;PMS_P2;Temp;Humidity;BMP_temperature;BMP_pressure;BME280_temperature;BME280_humidity;BME280_pressure;Samples;Min_cycle;Max_cycle;Signal;HPM_P1;HPM_P2
2023/10/02 00:01:24;;;;;;;23.70;8.65;;;;;;;15.10;100.00;101938.06;5027700;28;20022;-68
2023/10/02 00:04:15;;;;;;;21.88;8.73;;;;;;;15.03;100.00;101935.78;5040450;28;20086;-67
2023/10/02 00:06:36;;;;;;;17.48;8.52;;;;;;;15.09;100.00;101942.69;5027457;28;20049;-67
2023/10/02 00:09:04;;;;;;;19.05;8.77;;;;;;;15.09;100.00;101944.53;5026963;28;20051;-67
2023/10/02 00:11:35;;;;;;;17.70;8.45;;;;;;;15.04;100.00;101933.91;5026718;28;20050;-66
2023/10/02 00:14:19;;;;;;;20.83;7.90;;;;;;;15.05;100.00;101946.63;5027560;28;20087;-66
2023/10/02 00:17:00;;;;;;;19.05;8.75;;;;;;;15.03;100.00;101944.00;5026713;28;20038;-68
2023/10/02 00:19:30;;;;;;;17.48;7.78;;;;;;;15.00;100.00;101944.22;5027489;28;20037;-67
2023/10/02 00:22:08;;;;;;;20.85;8.27;;;;;;;14.97;100.00;101946.34;5027307;28;20505;-67
2023/10/02 00:24:39;;;;;;;20.42;8.52;;;;;;;14.97;100.00;101940.84;5027040;28;20500;-68
2023/10/02 00:27:06;;;;;;;21.90;8.32;;;;;;;14.95;100.00;101942.81;5026963;28;20457;-67
2023/10/02 00:29:32;;;;;;;18.42;8.20;;;;;;;14.94;100.00;101936.47;5035188;28;20037;-67
2023/10/02 00:31:58;;;;;;;20.40;8.55;;;;;;;14.93;100.00;101937.47;5025305;28;20042;-67
2023/10/02 00:34:31;;;;;;;19.58;8.05;;;;;;;14.87;100.00;101940.63;5027529;28;20045;-67
2023/10/02 00:37:05;;;;;;;25.50;8.52;;;;;;;14.88;100.00;101947.00;5027293;28;20480;-67
2023/10/02 00:39:32;;;;;;;18.13;8.27;;;;;;;14.82;100.00;101950.19;5027089;28;20503;-67
2023/10/02 00:42:24;;;;;;;22.30;8.82;;;;;;;14.79;100.00;101938.47;5026807;28;20067;-68
2023/10/02 00:44:57;;;;;;;19.13;8.13;;;;;;;14.78;100.00;101944.94;5037657;28;20041;-67
2023/10/02 00:47:41;;;;;;;19.35;8.32;;;;;;;14.75;100.00;101939.66;5044967;28;20055;-67
2023/10/02 00:50:17;;;;;;;25.33;9.32;;;;;;;14.77;100.00;101934.06;5025783;28;20496;-66
2023/10/02 00:53:04;;;;;;;19.52;7.68;;;;;;;14.74;100.00;101943.41;5027488;28;20139;-66
2023/10/02 00:55:34;;;;;;;25.15;10.07;;;;;;;14.75;100.00;101931.47;5025884;28;20041;-67
2023/10/02 00:58:02;;;;;;;18.02;7.28;;;;;;;14.69;100.00;101929.16;5025440;28;20124;-68
2023/10/02 01:00:35;;;;;;;21.45;7.72;;;;;;;14.68;100.00;101930.13;5026941;28;20065;-67
2023/10/02 01:03:08;;;;;;;20.33;7.93;;;;;;;14.67;100.00;101933.00;5025012;28;20029;-67
2023/10/02 01:05:58;;;;;;;17.60;7.40;;;;;;;14.62;100.00;101925.09;5025921;28;20037;-67
2023/10/02 01:08:24;;;;;;;18.08;8.02;;;;;;;14.61;100.00;101922.50;5025135;28;20041;-68
2023/10/02 01:10:56;;;;;;;18.30;7.55;;;;;;;14.64;100.00;101925.00;5027987;28;20444;-68
2023/10/02 01:13:32;;;;;;;23.20;9.90;;;;;;;14.65;100.00;101918.53;5045725;28;20504;-67
2023/10/02 01:16:00;;;;;;;19.58;8.70;;;;;;;14.57;100.00;101920.97;5029242;28;20037;-67
2023/10/02 01:18:29;;;;;;;20.42;8.90;;;;;;;14.50;100.00;101921.41;5031310;28;20048;-67
2023/10/02 01:20:59;;;;;;;20.85;8.60;;;;;;;14.53;100.00;101918.44;5050543;28;20120;-68
2023/10/02 01:23:31;;;;;;;18.83;7.97;;;;;;;14.51;100.00;101914.06;5048864;28;20515;-67
2023/10/02 01:25:59;;;;;;;21.95;9.82;;;;;;;14.53;100.00;101917.56;5032660;28;20088;-67
2023/10/02 01:28:51;;;;;;;18.95;7.40;;;;;;;14.46;100.00;101911.63;5029802;28;20545;-70
2023/10/02 01:31:31;;;;;;;18.27;7.35;;;;;;;14.46;100.00;101921.72;5030525;28;20447;-70
2023/10/02 01:33:59;;;;;;;20.83;8.48;;;;;;;14.44;100.00;101915.44;5041508;28;20035;-68
2023/10/02 01:36:31;;;;;;;21.00;7.78;;;;;;;14.39;100.00;101910.28;5030122;28;20457;-68
2023/10/02 01:39:10;;;;;;;21.88;8.65;;;;;;;14.38;100.00;101911.28;5029810;28;20047;-67
2023/10/02 01:41:39;;;;;;;19.95;8.70;;;;;;;14.35;100.00;101919.72;5029328;28;20120;-68
2023/10/02 01:44:10;;;;;;;21.77;8.75;;;;;;;14.36;100.00;101915.09;5030187;28;20519;-67
2023/10/02 01:46:49;;;;;;;23.23;9.38;;;;;;;14.35;100.00;101910.63;5029715;28;20041;-67
2023/10/02 01:49:27;;;;;;;18.10;8.75;;;;;;;14.30;100.00;101917.31;5028928;28;20029;-67
2023/10/02 01:52:01;;;;;;;20.85;8.52;;;;;;;14.28;100.00;101915.69;5029892;28;20107;-68
2023/10/02 01:54:29;;;;;;;20.58;7.65;;;;;;;14.26;100.00;101913.03;5030044;28;20120;-67
2023/10/02 01:56:56;;;;;;;26.38;9.00;;;;;;;14.23;100.00;101913.25;5028154;28;20033;-67
2023/10/02 01:59:24;;;;;;;16.42;7.38;;;;;;;14.21;100.00;101908.88;5028467;28;20033;-68
2023/10/02 02:01:56;;;;;;;20.25;8.35;;;;;;;14.21;100.00;101904.25;5028061;28;20718;-67
2023/10/02 02:04:23;;;;;;;;;;;;;;;14.27;100.00;101909.31;5030279;28;20083;-68
2023/10/02 02:06:52;;;;;;;16.48;7.82;;;;;;;14.19;100.00;101911.72;5029444;28;19915;-67
2023/10/02 02:09:24;;;;;;;21.13;8.25;;;;;;;14.15;100.00;101910.19;5028210;28;20067;-68
2023/10/02 02:12:05;;;;;;;19.80;7.88;;;;;;;14.14;100.00;101911.19;5047399;28;20191;-68
2023/10/02 02:14:49;;;;;;;21.60;8.00;;;;;;;14.12;100.00;101907.66;5034763;28;20053;-68
2023/10/02 02:17:17;;;;;;;20.70;8.35;;;;;;;14.14;100.00;101907.56;5027967;28;20037;-67
2023/10/02 02:19:48;;;;;;;20.10;8.63;;;;;;;14.13;100.00;101908.53;5030301;28;20438;-67
2023/10/02 02:22:14;;;;;;;16.90;7.93;;;;;;;14.13;100.00;101903.94;5029022;28;20535;-67
2023/10/02 02:24:40;;;;;;;21.27;8.38;;;;;;;14.13;100.00;101897.56;5029007;28;20033;-66
2023/10/02 02:27:06;;;;;;;19.38;7.82;;;;;;;14.12;100.00;101901.31;5028909;28;20048;-67
2023/10/02 02:29:33;;;;;;;19.10;8.40;;;;;;;14.13;100.00;101905.78;5045175;28;20040;-67
2023/10/02 02:31:59;;;;;;;19.80;8.15;;;;;;;14.11;100.00;101897.69;5048510;28;20086;-68
2023/10/02 02:34:26;;;;;;;21.10;8.18;;;;;;;14.09;100.00;101896.94;5031531;28;20472;-67
2023/10/02 02:36:54;;;;;;;21.65;8.48;;;;;;;14.06;100.00;101902.63;5045382;28;20052;-68
2023/10/02 02:39:22;;;;;;;17.25;7.38;;;;;;;14.06;100.00;101905.34;5028903;28;20044;-67
2023/10/02 02:41:48;;;;;;;16.35;7.13;;;;;;;14.05;100.00;101903.63;5028656;28;20396;-69
2023/10/02 02:47:07;;;;;;;17.42;7.25;;;;;;;14.03;100.00;101890.03;5030578;28;20480;-71
2023/10/02 02:49:48;;;;;;;16.65;6.68;;;;;;;14.00;100.00;101889.38;5037191;28;20045;-67
2023/10/02 02:52:15;;;;;;;20.55;8.05;;;;;;;13.98;100.00;101894.94;5028883;28;20064;-69
2023/10/02 02:54:44;;;;;;;18.00;7.75;;;;;;;13.96;100.00;101888.72;5048388;28;20041;-67
2023/10/02 02:57:09;;;;;;;20.38;8.07;;;;;;;13.96;100.00;101887.84;5048163;28;20025;-68
2023/10/02 02:59:38;;;;;;;16.65;7.53;;;;;;;13.96;100.00;101887.84;5028587;28;20440;-71
2023/10/02 03:02:12;;;;;;;19.70;8.35;;;;;;;13.98;100.00;101884.00;5026849;28;20076;-68
2023/10/02 03:04:38;;;;;;;18.88;7.43;;;;;;;13.96;100.00;101888.72;5028635;28;20048;-67
2023/10/02 03:07:09;;;;;;;26.58;9.80;;;;;;;14.02;100.00;101879.19;5042988;28;20032;-68
2023/10/02 03:09:37;;;;;;;19.27;8.35;;;;;;;13.96;100.00;101885.09;5040640;28;20098;-68
2023/10/02 03:12:05;;;;;;;20.35;8.05;;;;;;;13.96;100.00;101875.03;5027754;28;20072;-67
2023/10/02 03:14:32;;;;;;;18.40;8.43;;;;;;;13.95;100.00;101876.03;5027630;28;20049;-67
2023/10/02 03:17:22;;;;;;;22.13;9.00;;;;;;;13.96;100.00;101871.41;5038836;28;20083;-67
2023/10/02 03:19:45;;;;;;;21.40;8.80;;;;;;;13.98;100.00;101870.31;5045513;28;20033;-67
2023/10/02 03:22:11;;;;;;;21.02;9.48;;;;;;;13.99;100.00;101863.00;5028340;28;20025;-69
2023/10/02 03:24:39;;;;;;;20.55;9.60;;;;;;;14.02;100.00;101857.28;5027925;28;20561;-68
2023/10/02 03:27:08;;;;;;;21.77;9.40;;;;;;;13.99;100.00;101861.16;5026162;28;20022;-67
2023/10/02 03:29:34;;;;;;;19.92;8.68;;;;;;;13.97;100.00;101863.09;5010101;28;20036;-67
2023/10/02 03:31:59;;;;;;;19.88;8.23;;;;;;;13.95;100.00;101862.34;5027406;28;20068;-68
2023/10/02 03:34:27;;;;;;;19.65;8.05;;;;;;;13.98;100.00;101864.84;5027289;28;20022;-68
2023/10/02 03:37:09;;;;;;;20.80;9.20;;;;;;;13.97;100.00;101870.44;5027908;28;20040;-68
2023/10/02 03:39:53;;;;;;;20.73;8.77;;;;;;;13.97;100.00;101865.84;5027592;28;20048;-68
2023/10/02 03:42:22;;;;;;;20.80;8.95;;;;;;;13.97;100.00;101865.84;5026259;28;20132;-68
2023/10/02 03:44:54;;;;;;;25.20;9.23;;;;;;;13.97;100.00;101863.09;5028311;28;20087;-68
2023/10/02 03:47:19;;;;;;;20.75;8.07;;;;;;;13.93;100.00;101868.88;5025873;28;20135;-68
2023/10/02 03:49:44;;;;;;;21.63;9.43;;;;;;;13.91;100.00;101859.94;5026989;28;20029;-68
2023/10/02 03:52:17;;;;;;;21.00;8.57;;;;;;;13.91;100.00;101862.66;5026359;28;20370;-71
2023/10/02 03:54:44;;;;;;;18.15;8.20;;;;;;;13.92;100.00;101868.03;5026624;28;20033;-68
2023/10/02 03:57:37;;;;;;;18.55;7.85;;;;;;;13.88;100.00;101869.22;5027096;28;20397;-70
2023/10/02 04:00:18;;;;;;;19.60;8.38;;;;;;;13.87;100.00;101870.19;5027378;28;20092;-68
2023/10/02 04:02:45;;;;;;;23.55;8.43;;;;;;;13.91;100.00;101868.13;5027635;28;20049;-68
2023/10/02 04:05:30;;;;;;;20.85;8.80;;;;;;;13.88;100.00;101861.00;5028153;28;20584;-68
2023/10/02 04:08:12;;;;;;;19.15;7.82;;;;;;;13.90;100.00;101870.00;5027054;28;20044;-68
2023/10/02 04:10:51;;;;;;;20.83;8.73;;;;;;;13.91;100.00;101868.13;5026933;28;20107;-67
2023/10/02 04:13:27;;;;;;;24.42;8.85;;;;;;;13.93;100.00;101860.69;5025884;28;20060;-69
2023/10/02 04:15:53;;;;;;;21.95;8.45;;;;;;;13.93;100.00;101866.16;5029385;28;20048;-68
2023/10/02 04:18:45;;;;;;;24.67;9.27;;;;;;;13.98;100.00;101863.97;5046627;28;20101;-68
2023/10/02 04:21:09;;;;;;;22.98;9.02;;;;;;;13.94;100.00;101857.88;5047397;28;20036;-67
2023/10/02 04:23:40;;;;;;;20.23;9.25;;;;;;;13.97;100.00;101854.88;5034412;28;20043;-67
2023/10/02 04:26:19;;;;;;;22.50;8.82;;;;;;;13.96;100.00;101863.22;5027329;28;21121;-68
2023/10/02 04:28:49;;;;;;;19.63;8.45;;;;;;;13.94;100.00;101856.97;5026441;28;20037;-68
2023/10/02 04:31:20;;;;;;;20.73;9.60;;;;;;;13.92;100.00;101854.34;5027941;28;20037;-70
2023/10/02 04:34:06;;;;;;;23.10;8.48;;;;;;;13.90;100.00;101855.44;5025611;28;20068;-71
2023/10/02 04:36:34;;;;;;;21.02;8.25;;;;;;;13.85;100.00;101861.25;5027056;28;20381;-68
2023/10/02 04:39:04;;;;;;;23.77;9.82;;;;;;;13.85;100.00;101863.97;5026862;28;20033;-67
2023/10/02 04:41:37;;;;;;;22.60;9.20;;;;;;;13.84;100.00;101866.78;5025485;28;20112;-68
2023/10/02 04:44:04;;;;;;;19.90;8.55;;;;;;;13.84;100.00;101859.47;5026992;28;20041;-68
2023/10/02 04:46:32;;;;;;;21.25;9.07;;;;;;;13.84;100.00;101858.59;5030641;28;20094;-68
2023/10/02 04:48:59;;;;;;;22.30;8.73;;;;;;;13.84;100.00;101864.94;5029868;28;20060;-68
2023/10/02 04:51:30;;;;;;;23.05;9.48;;;;;;;13.81;100.00;101872.50;5030975;28;20210;-68
2023/10/02 04:54:05;;;;;;;24.00;8.77;;;;;;;13.78;100.00;101862.63;5030959;28;20034;-68
2023/10/02 04:56:30;;;;;;;17.63;8.23;;;;;;;13.75;100.00;101858.25;5030584;28;20499;-68
2023/10/02 04:58:58;;;;;;;19.23;8.35;;;;;;;13.74;100.00;101856.50;5030736;28;20065;-69
2023/10/02 05:03:55;;;;;;;18.63;7.53;;;;;;;13.73;100.00;101852.00;5030870;28;20429;-69
2023/10/02 05:11:57;;;;;;;19.35;8.05;;;;;;;13.63;100.00;101850.91;5030327;28;20060;-68
2023/10/02 05:14:28;;;;;;;16.88;8.02;;;;;;;13.58;100.00;101847.63;5030415;28;20069;-68
2023/10/02 05:17:16;;;;;;;21.05;8.52;;;;;;;13.55;100.00;101853.28;5029851;28;20037;-68
2023/10/02 05:20:03;;;;;;;23.67;8.90;;;;;;;13.57;100.00;101854.09;5030531;28;20040;-68
2023/10/02 05:22:31;;;;;;;21.75;8.68;;;;;;;13.57;100.00;101862.28;5030230;28;20044;-68
2023/10/02 05:25:04;;;;;;;20.27;8.63;;;;;;;13.56;100.00;101868.72;5030205;28;20042;-71
2023/10/02 05:27:32;;;;;;;20.90;8.55;;;;;;;13.53;100.00;101861.59;5029730;28;20037;-70
2023/10/02 05:30:05;;;;;;;18.85;8.13;;;;;;;13.53;100.00;101863.47;5036658;28;20030;-69
2023/10/02 05:32:35;;;;;;;19.65;7.60;;;;;;;13.53;100.00;101858.00;5029632;28;20052;-68
2023/10/02 05:35:06;;;;;;;21.42;8.30;;;;;;;13.55;100.00;101857.88;5030359;28;20037;-68
2023/10/02 05:37:32;;;;;;;22.23;8.80;;;;;;;13.49;100.00;101865.53;5028808;28;20477;-68
2023/10/02 05:42:53;;;;;;;17.65;8.30;;;;;;;13.52;100.00;101857.13;5041021;28;20038;-67
2023/10/02 05:45:37;;;;;;;21.33;8.48;;;;;;;13.52;100.00;101853.50;5035060;28;20048;-68
2023/10/02 05:48:07;;;;;;;24.63;9.30;;;;;;;13.51;100.00;101860.81;5035038;28;20052;-67
2023/10/02 05:50:34;;;;;;;20.77;8.55;;;;;;;13.51;100.00;101869.03;5049879;28;20476;-67
2023/10/02 05:52:59;;;;;;;21.60;9.65;;;;;;;13.56;100.00;101874.19;5034332;28;20698;-68
2023/10/02 05:55:25;;;;;;;18.38;8.30;;;;;;;13.52;100.00;101878.09;5029456;28;20041;-70
2023/10/02 05:57:54;;;;;;;21.02;8.68;;;;;;;13.52;100.00;101887.19;5026518;28;20040;-68
2023/10/02 06:00:20;;;;;;;27.52;9.70;;;;;;;13.55;100.00;101877.03;5028277;28;20036;-68
2023/10/02 06:02:57;;;;;;;20.52;8.00;;;;;;;13.55;100.00;101879.75;5027940;28;20037;-71
2023/10/02 06:05:23;;;;;;;23.35;9.38;;;;;;;13.58;100.00;101874.09;5029183;28;20552;-67
2023/10/02 06:07:51;;;;;;;20.98;9.57;;;;;;;13.62;100.00;101875.63;5029140;28;20120;-68
2023/10/02 06:10:26;;;;;;;25.00;9.52;;;;;;;13.62;100.00;101873.78;5027993;28;20072;-68
2023/10/02 06:13:05;;;;;;;25.42;9.32;;;;;;;13.67;100.00;101885.28;5026743;28;20100;-68
2023/10/02 06:15:46;;;;;;;21.30;8.90;;;;;;;13.71;100.00;101875.88;5029621;28;20064;-67
2023/10/02 06:18:24;;;;;;;27.80;10.23;;;;;;;13.76;100.00;101886.50;5028724;28;20125;-68
2023/10/02 06:21:00;;;;;;;23.25;9.00;;;;;;;13.83;100.00;101882.34;5028178;28;20043;-68
2023/10/02 06:23:37;;;;;;;22.35;8.95;;;;;;;13.88;100.00;101882.03;5034954;28;20080;-70
2023/10/02 06:26:09;;;;;;;25.42;10.20;;;;;;;13.97;100.00;101884.97;5028640;28;20045;-67
2023/10/02 06:28:37;;;;;;;26.77;9.98;;;;;;;14.06;100.00;101882.59;5033526;28;20044;-69
2023/10/02 06:31:06;;;;;;;25.42;10.65;;;;;;;14.11;100.00;101886.75;5030853;28;20517;-68
2023/10/02 06:33:36;;;;;;;27.02;9.77;;;;;;;14.11;100.00;101885.88;5026050;28;20037;-67
2023/10/02 06:36:10;;;;;;;23.85;9.35;;;;;;;14.16;100.00;101894.63;5028214;28;20045;-68
2023/10/02 06:38:36;;;;;;;26.00;9.85;;;;;;;14.18;100.00;101888.09;5029499;28;20037;-70
2023/10/02 06:41:08;;;;;;;27.45;10.65;;;;;;;14.28;100.00;101891.03;5045777;28;20037;-68
2023/10/02 06:43:35;;;;;;;29.17;11.07;;;;;;;14.32;100.00;101892.56;5042764;28;20449;-68
2023/10/02 06:46:07;;;;;;;22.65;9.70;;;;;;;14.40;100.00;101890.13;5029076;28;20128;-68
2023/10/02 06:48:39;;;;;;;28.58;10.60;;;;;;;14.47;100.00;101896.06;5028332;28;20033;-69
2023/10/02 06:51:04;;;;;;;26.08;10.73;;;;;;;14.56;100.00;101900.03;5028773;28;20108;-68
2023/10/02 06:53:30;;;;;;;24.00;10.00;;;;;;;14.64;100.00;101894.84;5028305;28;20168;-68
2023/10/02 06:55:59;;;;;;;24.55;10.02;;;;;;;14.74;100.00;101895.97;5028739;28;20119;-67
2023/10/02 06:58:29;;;;;;;26.08;9.95;;;;;;;14.82;100.00;101895.38;5028512;28;20037;-68
2023/10/02 07:00:55;;;;;;;28.10;10.50;;;;;;;14.88;100.00;101887.59;5027014;28;20030;-70
2023/10/02 07:03:21;;;;;;;25.38;10.20;;;;;;;14.96;100.00;101876.94;5028029;28;20033;-68
2023/10/02 07:05:48;;;;;;;29.45;10.45;;;;;;;15.07;100.00;101878.00;5026829;28;20041;-69
2023/10/02 07:08:26;;;;;;;21.02;8.95;;;;;;;15.17;100.00;101879.94;5028398;28;20211;-71
2023/10/02 07:10:52;;;;;;;25.90;9.73;;;;;;;15.27;100.00;101882.88;5032179;28;20056;-69
2023/10/02 07:13:19;;;;;;;23.95;11.00;;;;;;;15.37;100.00;101883.91;5032654;28;20033;-69
2023/10/02 07:15:59;;;;;;;24.23;10.07;;;;;;;15.45;100.00;101881.47;5027486;28;20424;-68
2023/10/02 07:18:36;;;;;;;24.45;10.48;;;;;;;15.56;100.00;101883.38;5027404;28;20047;-69
2023/10/02 07:21:07;;;;;;;30.40;10.88;;;;;;;15.70;100.00;101887.81;5028005;28;20033;-68
2023/10/02 07:23:37;;;;;;;25.05;10.43;;;;;;;15.86;100.00;101882.91;5027397;28;20041;-68
2023/10/02 07:26:12;;;;;;;26.88;10.52;;;;;;;16.16;100.00;101881.47;5027587;28;20037;-68
2023/10/02 07:28:50;;;;;;;30.83;11.40;;;;;;;16.41;100.00;101880.38;5027107;28;20044;-68
2023/10/02 07:31:17;;;;;;;27.33;11.27;;;;;;;16.54;100.00;101871.03;5033381;28;20037;-71
2023/10/02 07:33:44;;;;;;;32.03;12.23;;;;;;;16.64;100.00;101873.88;5041577;28;20485;-69
2023/10/02 07:36:14;;;;;;;31.27;11.27;;;;;;;16.76;100.00;101874.81;5026566;28;20033;-68
2023/10/02 07:38:42;;;;;;;25.40;10.55;;;;;;;16.83;100.00;101887.94;5026016;28;20041;-71
2023/10/02 07:41:14;;;;;;;27.15;11.52;;;;;;;16.93;100.00;101890.78;5027573;28;20033;-68
2023/10/02 07:43:40;;;;;;;25.92;10.82;;;;;;;16.97;100.00;101894.13;5026877;28;20049;-69
2023/10/02 07:46:14;;;;;;;28.10;10.43;;;;;;;17.01;100.00;101887.38;5046107;28;20507;-69
2023/10/02 07:48:55;;;;;;;26.85;11.50;;;;;;;17.08;100.00;101897.75;5047027;28;20773;-69
2023/10/02 07:51:30;;;;;;;33.10;11.60;;;;;;;17.16;100.00;101890.72;5027044;28;20034;-68
2023/10/02 07:53:56;;;;;;;22.75;10.45;;;;;;;17.19;100.00;101882.22;5051145;28;20037;-69
2023/10/02 07:56:24;;;;;;;24.38;10.05;;;;;;;17.23;100.00;101878.22;5036806;28;20136;-70
2023/10/02 07:58:55;;;;;;;27.02;10.90;;;;;;;17.27;100.00;101886.09;5029767;28;20796;-68
2023/10/02 08:01:25;;;;;;;28.13;11.10;;;;;;;17.32;100.00;101883.81;5043161;28;20033;-69
2023/10/02 08:03:50;;;;;;;24.42;10.85;;;;;;;17.36;100.00;101883.56;5031011;28;20037;-70
2023/10/02 08:06:21;;;;;;;26.02;10.55;;;;;;;17.40;100.00;101885.94;5032063;28;20039;-68
2023/10/02 08:09:35;;;;;;;23.88;9.90;;;;;;;17.44;100.00;101881.94;5036368;28;20497;-68
2023/10/02 08:11:41;;;;;;;21.42;9.63;;;;;;;17.49;100.00;101884.28;5035737;28;20048;-69
2023/10/02 08:14:34;;;;;;;25.17;10.98;;;;;;;17.51;100.00;101894.13;5031294;28;20943;-68
2023/10/02 08:17:00;;;;;;;26.85;10.68;;;;;;;17.55;100.00;101895.63;5034257;28;20033;-68
2023/10/02 08:19:28;;;;;;;28.83;10.77;;;;;;;17.65;100.00;101898.47;5041800;28;20098;-69
2023/10/02 08:21:55;;;;;;;26.60;10.13;;;;;;;17.80;100.00;101893.56;5026531;28;20473;-69
2023/10/02 08:24:20;;;;;;;26.85;11.13;;;;;;;17.88;100.00;101893.75;5037592;28;20064;-69
2023/10/02 08:26:47;;;;;;;26.77;10.95;;;;;;;17.99;100.00;101899.19;5045103;28;20099;-71
2023/10/02 08:29:14;;;;;;;25.35;11.73;;;;;;;18.09;100.00;101894.66;5045714;28;20024;-68
2023/10/02 08:31:47;;;;;;;29.67;10.57;;;;;;;18.21;100.00;101900.97;5040267;28;20841;-69
2023/10/02 08:34:19;;;;;;;27.50;11.95;;;;;;;18.36;100.00;101904.25;5040108;28;20080;-69
2023/10/02 08:36:45;;;;;;;34.20;12.07;;;;;;;18.56;98.68;101894.22;5027547;28;20038;-68
2023/10/02 08:39:11;;;;;;;26.95;11.35;;;;;;;18.82;95.18;101895.50;5025754;28;20405;-69
2023/10/02 08:41:43;;;;;;;28.95;11.63;;;;;;;19.11;95.51;101894.72;5026779;28;20026;-68
2023/10/02 08:44:13;;;;;;;34.60;11.18;;;;;;;19.46;95.90;101891.47;5027782;28;20778;-69
2023/10/02 08:46:42;;;;;;;28.23;11.77;;;;;;;19.76;92.24;101893.25;5046494;28;20033;-68
2023/10/02 08:49:12;;;;;;;28.92;11.55;;;;;;;20.03;92.36;101895.28;5043057;28;20047;-68
2023/10/02 08:51:38;;;;;;;25.65;10.68;;;;;;;20.27;93.76;101897.56;5027198;28;20084;-68
2023/10/02 08:54:05;;;;;;;28.08;11.90;;;;;;;20.44;91.30;101878.47;5026868;28;20088;-69
2023/10/02 08:56:48;;;;;;;23.52;10.38;;;;;;;20.56;92.73;101880.03;5025296;28;20049;-68
2023/10/02 08:59:18;;;;;;;24.70;11.07;;;;;;;20.66;88.59;101880.00;5035351;28;20801;-69
2023/10/02 09:01:47;;;;;;;29.17;11.85;;;;;;;20.75;90.49;101870.81;5025899;28;20549;-68
2023/10/02 09:06:58;;;;;;;31.02;11.63;;;;;;;20.98;92.23;101871.28;5026035;28;20110;-69
2023/10/02 09:11:53;;;;;;;25.75;11.50;;;;;;;21.07;89.71;101882.28;5043842;28;20045;-68
2023/10/02 09:16:47;;;;;;;23.67;10.68;;;;;;;21.15;88.62;101887.94;5032401;28;20032;-71
2023/10/02 09:19:31;;;;;;;26.02;11.48;;;;;;;21.09;88.83;101890.44;5030043;28;20087;-71
2023/10/02 09:22:07;;;;;;;28.25;11.93;;;;;;;21.06;88.25;101882.44;5031732;28;20029;-72
2023/10/02 09:24:37;;;;;;;27.60;10.45;;;;;;;21.05;87.87;101883.47;5045865;28;20041;-75
2023/10/02 09:30:15;;;;;;;29.75;11.15;;;;;;;21.03;86.01;101880.88;5036450;28;20503;-73
2023/10/02 09:32:47;;;;;;;23.92;11.20;;;;;;;21.04;86.00;101876.22;5044140;28;20118;-76
2023/10/02 09:35:21;;;;;;;26.25;11.75;;;;;;;21.03;86.21;101880.88;5031014;28;20049;-71
2023/10/02 09:37:55;;;;;;;24.98;10.45;;;;;;;21.01;86.18;101876.50;5030060;28;20069;-71
2023/10/02 09:40:22;;;;;;;26.83;11.32;;;;;;;20.91;88.37;101875.69;5046717;28;20040;-70
2023/10/02 09:42:49;;;;;;;29.50;11.38;;;;;;;20.92;89.54;101875.53;5048287;28;20148;-71
2023/10/02 09:45:17;;;;;;;21.85;11.00;;;;;;;20.94;87.55;101880.91;5041715;28;20041;-70
2023/10/02 09:47:42;;;;;;;26.25;11.13;;;;;;;20.95;87.88;101877.13;5049774;28;20140;-70
2023/10/02 09:50:23;;;;;;;26.08;11.38;;;;;;;21.05;88.49;101878.81;5049998;28;20049;-70
2023/10/02 09:53:12;;;;;;;29.80;11.30;;;;;;;21.23;89.01;101872.44;5030663;28;20083;-71
2023/10/02 09:56:13;;;;;;;25.83;11.77;;;;;;;21.39;87.99;101875.41;5029901;28;20040;-71
2023/10/02 09:58:52;;;;;;;26.33;11.25;;;;;;;21.48;87.19;101871.72;5036763;28;20048;-71
2023/10/02 10:03:52;;;;;;;28.35;11.98;;;;;;;21.63;84.07;101874.78;5029908;28;20691;-71
2023/10/02 10:06:28;;;;;;;28.60;12.10;;;;;;;21.70;85.03;101866.75;5028484;28;20072;-71
2023/10/02 10:11:43;;;;;;;28.05;12.25;;;;;;;21.90;81.12;101873.84;5027448;28;20053;-71
2023/10/02 10:14:36;;;;;;;31.08;12.40;;;;;;;22.10;83.21;101869.88;5027228;28;20041;-70
2023/10/02 10:17:17;;;;;;;30.55;12.70;;;;;;;22.17;81.30;101863.69;5055390;28;20024;-70
2023/10/02 10:19:48;;;;;;;26.10;12.45;;;;;;;22.23;80.86;101857.50;5058485;28;20040;-71
2023/10/02 10:22:36;;;;;;;28.23;12.07;;;;;;;22.29;82.73;101854.06;5027721;28;20066;-71
2023/10/02 10:27:40;;;;;;;29.38;11.95;;;;;;;22.42;82.57;101847.03;5033499;28;20134;-70
2023/10/02 10:30:39;;;;;;;30.33;12.45;;;;;;;22.51;81.39;101853.50;5059725;28;20039;-71
2023/10/02 10:35:49;;;;;;;30.08;13.27;;;;;;;22.87;76.47;101850.56;5034609;28;20555;-71
2023/10/02 10:38:36;;;;;;;25.90;12.50;;;;;;;23.07;79.39;101849.28;5043451;28;20071;-71
2023/10/02 10:41:06;;;;;;;26.25;12.98;;;;;;;23.11;75.89;101836.81;5039448;28;20025;-71
2023/10/02 10:43:44;;;;;;;26.90;12.45;;;;;;;23.11;77.02;101844.28;5044030;28;20179;-71
2023/10/02 10:46:13;;;;;;;28.08;12.40;;;;;;;23.12;78.73;101841.31;5026394;28;20052;-70
2023/10/02 10:48:40;;;;;;;26.75;12.40;;;;;;;23.10;75.73;101831.44;5026563;28;20048;-71
2023/10/02 10:51:20;;;;;;;27.85;13.23;;;;;;;23.11;77.63;101838.72;5027150;28;20052;-70
2023/10/02 10:53:47;;;;;;;27.42;12.57;;;;;;;23.06;74.49;101830.91;5026052;28;20083;-71
2023/10/02 10:56:19;;;;;;;28.73;12.20;;;;;;;23.05;78.10;101834.72;5044402;28;20060;-71
2023/10/02 10:58:52;;;;;;;26.73;13.10;;;;;;;23.04;78.37;101838.53;5041357;28;20490;-70
2023/10/02 11:01:20;;;;;;;30.13;12.98;;;;;;;23.14;77.82;101832.84;5040010;28;20060;-71
2023/10/02 11:04:04;;;;;;;28.17;13.20;;;;;;;23.29;78.02;101831.13;5034426;28;20052;-70
2023/10/02 11:06:30;;;;;;;28.52;12.52;;;;;;;23.48;77.12;101829.06;5029469;28;20041;-71
2023/10/02 11:09:12;;;;;;;29.55;13.00;;;;;;;23.50;78.76;101825.09;5026749;28;20048;-71
2023/10/02 11:11:50;;;;;;;27.33;11.95;;;;;;;23.62;77.29;101820.06;5042990;28;20053;-71
2023/10/02 11:14:22;;;;;;;27.08;12.18;;;;;;;23.75;75.33;101825.16;5035635;28;20389;-71
2023/10/02 11:16:51;;;;;;;;;;;;;;;23.93;79.45;101820.28;5028041;28;20046;-70
2023/10/02 11:22:20;;;;;;;32.58;13.25;;;;;;;24.19;77.72;101809.78;5028135;28;20046;-71
2023/10/02 11:24:51;;;;;;;25.60;12.27;;;;;;;24.35;76.69;101802.47;5028396;28;20489;-71
2023/10/02 11:27:17;;;;;;;25.35;12.70;;;;;;;24.57;77.76;101807.28;5028112;28;20045;-71
2023/10/02 11:29:45;;;;;;;30.45;12.48;;;;;;;24.73;72.79;101811.94;5028975;28;20450;-71
2023/10/02 11:32:26;;;;;;;26.27;11.07;;;;;;;24.84;73.86;101794.81;5026056;28;20128;-70
2023/10/02 11:34:59;;;;;;;22.15;11.15;;;;;;;25.17;72.31;101803.88;5024900;28;20048;-71
2023/10/02 11:37:26;;;;;;;24.45;11.00;;;;;;;25.31;70.63;101801.34;5026232;28;20052;-71
2023/10/02 11:39:53;;;;;;;26.83;11.23;;;;;;;25.51;72.69;101805.41;5026783;28;20029;-71
2023/10/02 11:42:19;;;;;;;24.23;11.32;;;;;;;25.68;68.54;101795.84;5026868;28;20053;-71
2023/10/02 11:44:45;;;;;;;27.55;12.35;;;;;;;25.61;66.16;101806.00;5027379;28;20061;-70
2023/10/02 11:47:10;;;;;;;25.33;11.90;;;;;;;25.77;67.61;101798.59;5026791;28;20029;-70
2023/10/02 11:49:37;;;;;;;28.00;11.52;;;;;;;25.88;68.11;101793.44;5027033;28;20155;-70
2023/10/02 11:52:03;;;;;;;25.20;11.48;;;;;;;26.03;66.63;101790.69;5027001;28;20021;-70
2023/10/02 11:54:29;;;;;;;29.73;11.90;;;;;;;26.14;68.13;101784.63;5026261;28;20519;-71
2023/10/02 11:56:55;;;;;;;27.17;11.90;;;;;;;26.23;68.98;101779.81;5026956;28;20037;-70
2023/10/02 11:59:20;;;;;;;27.08;11.60;;;;;;;26.32;67.08;101780.59;5032767;28;20045;-70
2023/10/02 12:01:47;;;;;;;23.33;10.93;;;;;;;26.49;68.42;101776.59;5027008;28;20029;-71
2023/10/02 12:04:15;;;;;;;23.65;11.32;;;;;;;26.55;65.78;101777.75;5027116;28;20037;-70
2023/10/02 12:06:41;;;;;;;23.27;11.00;;;;;;;26.62;63.86;101782.34;5025441;28;20521;-71
2023/10/02 12:09:06;;;;;;;23.85;11.18;;;;;;;26.51;67.46;101771.69;5025747;28;20032;-71